createdAt,value
2023-04-09T00:01:19.745Z,0.00
2023-04-09T00:06:19.672Z,0.00
2023-04-09T00:11:19.605Z,0.00
2023-04-09T00:16:19.562Z,0.00
2023-04-09T00:21:19.475Z,0.00
2023-04-09T00:26:19.397Z,0.00
2023-04-09T00:31:20.766Z,0.00
2023-04-09T00:36:19.262Z,0.00
2023-04-09T00:41:19.224Z,0.00
2023-04-09T00:46:19.255Z,0.00
2023-04-09T00:51:19.081Z,0.00
2023-04-09T00:56:19.013Z,0.00
2023-04-09T01:01:18.975Z,0.00
2023-04-09T01:06:18.863Z,0.00
2023-04-09T01:11:18.796Z,0.00
2023-04-09T01:16:18.759Z,0.00
2023-04-09T01:21:18.657Z,0.00
2023-04-09T01:26:18.578Z,0.00
2023-04-09T01:31:18.543Z,0.00
2023-04-09T01:36:18.447Z,0.00
2023-04-09T01:41:18.384Z,0.00
2023-04-09T01:46:18.361Z,0.00
2023-04-09T01:51:18.251Z,0.00
2023-04-09T01:56:18.171Z,0.00
2023-04-09T02:01:18.148Z,0.00
2023-04-09T02:06:18.046Z,0.00
2023-04-09T02:11:17.976Z,0.00
2023-04-09T02:16:18.056Z,0.00
2023-04-09T02:21:17.839Z,0.00
2023-04-09T02:26:17.780Z,0.00
2023-04-09T02:31:17.741Z,0.00
2023-04-09T02:36:17.656Z,0.00
2023-04-09T02:41:17.574Z,0.00
2023-04-09T02:46:17.546Z,0.00
2023-04-09T02:51:17.457Z,0.00
2023-04-09T02:56:17.364Z,0.00
2023-04-09T03:01:17.348Z,0.00
2023-04-09T03:06:17.233Z,0.00
2023-04-09T03:11:17.181Z,0.00
2023-04-09T03:16:17.187Z,0.00
2023-04-09T03:21:17.055Z,0.00
2023-04-09T03:26:16.978Z,0.00
2023-04-09T03:31:16.967Z,0.00
2023-04-09T03:36:16.875Z,0.00
2023-04-09T03:41:16.790Z,0.00
2023-04-09T03:46:16.742Z,0.00
2023-04-09T03:51:16.652Z,0.00
2023-04-09T03:56:16.581Z,0.00
2023-04-09T04:01:16.536Z,0.00
2023-04-09T04:06:16.454Z,8.00
2023-04-09T04:11:16.388Z,20.00
2023-04-09T04:16:16.369Z,44.00
2023-04-09T04:21:16.242Z,92.00
2023-04-09T04:26:16.177Z,172.00
2023-04-09T04:31:16.140Z,288.00
2023-04-09T04:36:16.050Z,452.00
2023-04-09T04:41:15.984Z,680.00
2023-04-09T04:46:15.972Z,964.00
2023-04-09T04:51:15.850Z,1304.00
2023-04-09T04:56:15.773Z,1740.00
2023-04-09T05:01:15.776Z,2300.00
2023-04-09T05:06:15.644Z,2984.00
2023-04-09T05:11:15.585Z,3776.00
2023-04-09T05:16:15.525Z,4512.00
2023-04-09T05:21:15.456Z,5248.00
2023-04-09T05:26:15.404Z,6048.00
2023-04-09T05:31:15.367Z,7216.00
2023-04-09T05:36:15.256Z,8640.00
2023-04-09T05:41:15.191Z,10648.00
2023-04-09T05:46:15.140Z,11228.00
2023-04-09T05:51:15.182Z,12552.00
2023-04-09T05:56:14.997Z,26016.00
2023-04-09T06:01:14.921Z,29664.00
2023-04-09T06:06:14.864Z,32000.00
2023-04-09T06:11:14.802Z,33568.00
2023-04-09T06:16:14.792Z,22080.00
2023-04-09T06:21:14.667Z,22048.00
2023-04-09T06:26:14.600Z,30720.00
2023-04-09T06:31:14.620Z,45312.00
2023-04-09T06:36:14.490Z,50976.00
2023-04-09T06:41:14.410Z,51968.00
2023-04-09T06:46:14.343Z,57152.00
2023-04-09T06:51:14.250Z,53664.00
2023-04-09T06:56:14.202Z,60896.00
2023-04-09T07:01:14.121Z,59648.00
2023-04-09T07:06:14.064Z,53728.00
2023-04-09T07:11:13.984Z,63200.00
2023-04-09T07:16:13.959Z,50944.00
2023-04-09T07:21:13.852Z,55616.00
2023-04-09T07:26:13.797Z,63520.00
2023-04-09T07:31:13.764Z,69344.00
2023-04-09T07:36:13.774Z,72928.00
2023-04-09T07:41:13.597Z,48512.00
2023-04-09T07:46:13.536Z,50720.00
2023-04-09T07:51:13.461Z,72256.00
2023-04-09T07:56:13.402Z,75776.00
2023-04-09T08:01:13.333Z,71264.00
2023-04-09T08:06:13.266Z,67808.00
2023-04-09T08:11:13.188Z,66336.00
2023-04-09T08:16:13.167Z,73760.00
2023-04-09T08:21:13.054Z,73664.00
2023-04-09T08:26:13.009Z,55136.00
2023-04-09T08:31:12.920Z,66176.00
2023-04-09T08:36:12.900Z,73888.00
2023-04-09T08:41:14.095Z,76064.00
2023-04-09T08:46:12.844Z,69600.00
2023-04-09T08:51:12.646Z,72416.00
2023-04-09T08:56:12.586Z,71840.00
2023-04-09T09:01:13.623Z,71840.00
2023-04-09T09:06:12.451Z,74336.00
2023-04-09T09:11:12.385Z,62688.00
2023-04-09T09:16:12.366Z,71712.00
2023-04-09T09:21:12.243Z,74016.00
2023-04-09T09:26:12.197Z,72960.00
2023-04-09T09:31:12.182Z,66112.00
2023-04-09T09:36:12.217Z,73536.00
2023-04-09T09:41:11.986Z,67040.00
2023-04-09T09:46:12.008Z,65120.00
2023-04-09T09:51:11.859Z,65088.00
2023-04-09T09:56:11.810Z,63392.00
2023-04-09T10:01:11.743Z,63968.00
2023-04-09T10:06:11.669Z,61920.00
2023-04-09T10:11:11.585Z,64960.00
2023-04-09T10:16:11.614Z,61248.00
2023-04-09T10:21:11.442Z,55776.00
2023-04-09T10:26:11.380Z,56096.00
2023-04-09T10:31:11.354Z,56000.00
2023-04-09T10:36:11.291Z,52768.00
2023-04-09T10:41:11.185Z,49952.00
2023-04-09T10:46:11.141Z,55008.00
2023-04-09T10:51:11.056Z,54720.00
2023-04-09T10:56:10.996Z,53152.00
2023-04-09T11:01:10.919Z,52032.00
2023-04-09T11:06:10.860Z,36224.00
2023-04-09T11:11:10.784Z,24672.00
2023-04-09T11:16:10.777Z,20224.00
2023-04-09T11:21:10.656Z,19360.00
2023-04-09T11:26:10.597Z,25376.00
2023-04-09T11:31:10.640Z,26720.00
2023-04-09T11:36:10.558Z,18048.00
2023-04-09T11:41:10.376Z,16592.00
2023-04-09T11:46:10.333Z,15536.00
2023-04-09T11:51:10.255Z,15444.00
2023-04-09T11:56:10.203Z,14724.00
2023-04-09T12:01:10.110Z,13876.00
2023-04-09T12:06:10.057Z,12948.00
2023-04-09T12:11:09.977Z,9020.00
2023-04-09T12:16:09.935Z,8856.00
2023-04-09T12:21:09.846Z,8668.00
2023-04-09T12:26:09.791Z,8308.00
2023-04-09T12:31:09.713Z,7532.00
2023-04-09T12:36:09.682Z,7176.00
2023-04-09T12:41:09.596Z,7076.00
2023-04-09T12:46:09.598Z,6912.00
2023-04-09T12:51:09.442Z,6740.00
2023-04-09T12:56:09.391Z,6612.00
2023-04-09T13:01:09.406Z,6564.00
2023-04-09T13:06:09.253Z,6576.00
2023-04-09T13:11:09.173Z,6432.00
2023-04-09T13:16:09.131Z,6416.00
2023-04-09T13:21:09.034Z,6312.00
2023-04-09T13:26:08.983Z,6116.00
2023-04-09T13:31:08.950Z,5920.00
2023-04-09T13:36:08.867Z,5928.00
2023-04-09T13:41:08.780Z,5864.00
2023-04-09T13:46:08.733Z,5784.00
2023-04-09T13:51:08.645Z,5644.00
2023-04-09T13:56:08.578Z,5540.00
2023-04-09T14:01:08.554Z,5420.00
2023-04-09T14:06:08.465Z,5352.00
2023-04-09T14:11:08.370Z,5280.00
2023-04-09T14:16:08.324Z,5188.00
2023-04-09T14:21:10.129Z,5100.00
2023-04-09T14:26:08.184Z,5112.00
2023-04-09T14:31:08.189Z,5024.00
2023-04-09T14:36:08.093Z,4924.00
2023-04-09T14:41:07.980Z,4872.00
2023-04-09T14:46:07.970Z,4776.00
2023-04-09T14:51:07.862Z,4736.00
2023-04-09T14:56:07.795Z,4732.00
2023-04-09T15:01:07.755Z,4660.00
2023-04-09T15:06:07.676Z,4616.00
2023-04-09T15:11:07.604Z,4528.00
2023-04-09T15:16:07.563Z,4432.00
2023-04-09T15:21:07.477Z,4352.00
2023-04-09T15:26:07.402Z,4296.00
2023-04-09T15:31:07.353Z,4260.00
2023-04-09T15:36:07.293Z,4176.00
2023-04-09T15:41:07.432Z,4104.00
2023-04-09T15:46:07.200Z,4020.00
2023-04-09T15:51:07.100Z,3936.00
2023-04-09T15:56:07.016Z,3832.00
2023-04-09T16:01:07.014Z,3724.00
2023-04-09T16:06:06.896Z,3628.00
2023-04-09T16:11:06.846Z,3532.00
2023-04-09T16:16:06.999Z,3432.00
2023-04-09T16:21:06.695Z,3340.00
2023-04-09T16:26:06.628Z,3196.00
2023-04-09T16:31:06.573Z,3008.00
2023-04-09T16:36:06.530Z,2852.00
2023-04-09T16:41:06.448Z,2696.00
2023-04-09T16:46:06.401Z,2536.00
2023-04-09T16:51:06.286Z,2372.00
2023-04-09T16:56:06.225Z,2208.00
2023-04-09T17:01:06.156Z,2044.00
2023-04-09T17:06:06.105Z,1876.00
2023-04-09T17:11:06.021Z,1712.00
2023-04-09T17:16:06.318Z,1540.00
2023-04-09T17:21:05.887Z,1348.00
2023-04-09T17:26:05.832Z,1152.00
2023-04-09T17:31:05.790Z,968.00
2023-04-09T17:36:05.749Z,788.00
2023-04-09T17:41:07.374Z,616.00
2023-04-09T17:46:05.651Z,452.00
2023-04-09T17:51:05.510Z,308.00
2023-04-09T17:56:05.448Z,192.00
2023-04-09T18:01:05.471Z,112.00
2023-04-09T18:06:05.306Z,60.00
2023-04-09T18:11:12.894Z,28.00
2023-04-09T18:16:05.198Z,12.00
2023-04-09T18:21:05.097Z,4.00
2023-04-09T18:26:05.066Z,0.00
2023-04-09T18:31:04.992Z,0.00
2023-04-09T18:36:04.956Z,0.00
2023-04-09T18:41:04.833Z,0.00
2023-04-09T18:46:04.818Z,0.00
2023-04-09T18:51:04.692Z,0.00
2023-04-09T18:56:04.639Z,0.00
2023-04-09T19:01:04.555Z,0.00
2023-04-09T19:06:04.498Z,0.00
2023-04-09T19:11:04.425Z,0.00
2023-04-09T19:16:04.431Z,0.00
2023-04-09T19:21:04.292Z,0.00
2023-04-09T19:26:04.246Z,0.00
2023-04-09T19:31:04.188Z,0.00
2023-04-09T19:36:04.149Z,0.00
2023-04-09T19:41:04.027Z,0.00
2023-04-09T19:46:03.979Z,0.00
2023-04-09T19:51:03.939Z,0.00
2023-04-09T19:56:03.941Z,0.00
2023-04-09T20:01:03.996Z,0.00
2023-04-09T20:06:03.945Z,0.00
2023-04-09T20:11:03.626Z,0.00
2023-04-09T20:16:03.604Z,0.00
2023-04-09T20:21:03.493Z,0.00
2023-04-09T20:26:03.428Z,0.00
2023-04-09T20:31:03.359Z,0.00
2023-04-09T20:36:03.345Z,0.00
2023-04-09T20:41:03.237Z,0.00
2023-04-09T20:46:03.222Z,0.00
2023-04-09T20:51:03.098Z,0.00
2023-04-09T20:56:03.055Z,0.00
2023-04-09T21:01:02.962Z,0.00
2023-04-09T21:06:02.936Z,0.00
2023-04-09T21:11:02.819Z,0.00
2023-04-09T21:16:02.775Z,0.00
2023-04-09T21:21:02.694Z,0.00
2023-04-09T21:26:02.645Z,0.00
2023-04-09T21:31:02.624Z,0.00
2023-04-09T21:36:02.532Z,0.00
2023-04-09T21:41:02.451Z,0.00
2023-04-09T21:46:02.435Z,0.00
2023-04-09T21:51:02.304Z,0.00
2023-04-09T21:56:04.672Z,0.00
2023-04-09T22:01:02.255Z,0.00
2023-04-09T22:06:02.147Z,0.00
2023-04-09T22:11:02.036Z,0.00
2023-04-09T22:16:02.046Z,0.00
2023-04-09T22:21:01.909Z,0.00
2023-04-09T22:26:01.870Z,0.00
2023-04-09T22:31:01.818Z,0.00
2023-04-09T22:36:01.775Z,0.00
2023-04-09T22:41:01.631Z,0.00
2023-04-09T22:46:01.647Z,0.00
2023-04-09T22:51:01.500Z,0.00
2023-04-09T22:56:01.461Z,0.00
2023-04-09T23:01:01.365Z,0.00
2023-04-09T23:06:01.314Z,0.00
2023-04-09T23:11:01.236Z,0.00
2023-04-09T23:16:01.221Z,0.00
2023-04-09T23:21:01.114Z,0.00
2023-04-09T23:26:01.037Z,0.00
2023-04-09T23:31:01.016Z,0.00
2023-04-09T23:36:01.183Z,0.00
2023-04-09T23:41:00.843Z,0.00
2023-04-09T23:46:00.769Z,0.00
2023-04-09T23:51:00.699Z,0.00
2023-04-09T23:56:00.697Z,0.00
